ePrivacy and GPDR Cookie Consent by Cookie Consent
EmailTwitter


Surface observations / France / LFBO (07630)

Regions: Quebec | Canada | USA | Europe | France | UK | Elsewhere
Station
Display
Info & Location for LFBO (07630) | Help decoding METAR

Weather Conditions observed on 2024/05/26 at 22:00 UTC at TOULOUSE/BLAGNAC, FR (LFBO)

Sky conditions: overcast.

Temperature: 17.0 Celsius.

Dewpoint: 13.0 Celsius.

Relative Humidity: 77%

Winds: Northwest at 15 km/h or 8 knots.

Mean Sea level Pressure: 102.10 kilopascals.

Horizontal visibility: 6.21 statute miles or 9.94 kilometers.

Height of the Ceiling: 975 metres ( 3200 feet ).

Coded METAR:

LFBO 262200Z AUTO 30008KT 9999 BKN032 BKN045 OVC066 17/13 Q1021 TEMPO 4000 SHRA

SCT035TCU BKN060CB=